createdAt,value
2018-07-26T00:01:31.265Z,5.80
2018-07-26T00:03:58.881Z,6.57
2018-07-26T00:06:26.436Z,5.47
2018-07-26T00:08:54.026Z,8.77
2018-07-26T00:11:21.588Z,6.23
2018-07-26T00:13:49.135Z,7.90
2018-07-26T00:16:16.678Z,9.43
2018-07-26T00:18:44.252Z,11.77
2018-07-26T00:21:11.802Z,14.37
2018-07-26T00:23:39.341Z,8.47
2018-07-26T00:26:06.979Z,6.73
2018-07-26T00:28:34.560Z,12.03
2018-07-26T00:31:02.106Z,8.07
2018-07-26T00:33:29.664Z,7.90
2018-07-26T00:35:57.240Z,9.83
2018-07-26T00:38:24.834Z,9.00
2018-07-26T00:40:52.462Z,10.03
2018-07-26T00:43:20.016Z,11.60
2018-07-26T00:45:47.632Z,17.80
2018-07-26T00:48:15.220Z,17.90
2018-07-26T00:50:42.780Z,11.77
2018-07-26T00:53:10.400Z,9.30
2018-07-26T00:55:38.021Z,16.10
2018-07-26T00:58:05.604Z,11.03
2018-07-26T01:00:33.137Z,15.27
2018-07-26T01:03:00.718Z,10.60
2018-07-26T01:05:28.287Z,15.63
2018-07-26T01:07:55.832Z,15.53
2018-07-26T01:10:23.423Z,19.37
2018-07-26T01:12:51.376Z,15.80
2018-07-26T01:15:18.994Z,22.20
2018-07-26T01:17:46.589Z,21.67
2018-07-26T01:20:14.134Z,14.37
2018-07-26T01:22:41.676Z,13.43
2018-07-26T01:25:09.339Z,14.60
2018-07-26T01:27:36.939Z,19.17
2018-07-26T01:30:04.576Z,16.40
2018-07-26T01:32:32.149Z,16.23
2018-07-26T01:34:59.640Z,11.67
2018-07-26T01:37:27.214Z,12.83
2018-07-26T01:39:54.768Z,16.57
2018-07-26T01:42:22.308Z,14.33
2018-07-26T01:44:49.857Z,14.80
2018-07-26T01:47:17.428Z,17.53
2018-07-26T01:49:44.968Z,16.80
2018-07-26T01:52:12.558Z,12.30
2018-07-26T01:54:40.111Z,14.80
2018-07-26T01:57:07.701Z,15.53
2018-07-26T01:59:35.295Z,16.30
2018-07-26T02:02:03.073Z,13.00
2018-07-26T02:04:30.583Z,14.17
2018-07-26T02:06:58.217Z,14.23
2018-07-26T02:09:25.811Z,15.13
2018-07-26T02:11:53.375Z,15.10
2018-07-26T02:14:26.629Z,19.70
2018-07-26T02:16:54.163Z,14.13
2018-07-26T02:19:21.733Z,14.83
2018-07-26T02:21:49.297Z,16.60
2018-07-26T02:24:16.837Z,13.33
2018-07-26T02:26:44.403Z,14.00
2018-07-26T02:29:11.973Z,14.03
2018-07-26T02:31:39.639Z,14.67
2018-07-26T02:34:07.196Z,12.13
2018-07-26T02:36:34.779Z,12.57
2018-07-26T02:39:02.463Z,14.60
2018-07-26T02:41:30.139Z,13.73
2018-07-26T02:43:57.655Z,13.87
2018-07-26T02:46:25.209Z,11.00
2018-07-26T02:48:52.759Z,11.87
2018-07-26T02:51:20.336Z,11.97
2018-07-26T02:53:47.961Z,12.90
2018-07-26T02:56:15.566Z,12.67
2018-07-26T02:58:43.163Z,11.93
2018-07-26T03:01:10.782Z,10.50
2018-07-26T03:03:38.329Z,12.07
2018-07-26T03:06:05.966Z,15.90
2018-07-26T03:08:33.563Z,12.13
2018-07-26T03:11:01.102Z,15.13
2018-07-26T03:13:28.715Z,12.30
2018-07-26T03:15:56.571Z,13.73
2018-07-26T03:18:24.173Z,14.33
2018-07-26T03:20:51.748Z,14.73
2018-07-26T03:23:19.335Z,12.27
2018-07-26T03:25:46.886Z,14.67
2018-07-26T03:28:14.459Z,14.03
2018-07-26T03:30:42.006Z,16.77
2018-07-26T03:33:09.599Z,10.80
2018-07-26T03:35:37.184Z,12.10
2018-07-26T03:38:05.048Z,14.07
2018-07-26T03:40:32.596Z,15.97
2018-07-26T03:43:00.170Z,14.57
2018-07-26T03:45:27.711Z,11.00
2018-07-26T03:47:55.259Z,13.10
2018-07-26T03:50:22.855Z,19.83
2018-07-26T03:52:50.432Z,10.43
2018-07-26T03:55:17.975Z,13.17
2018-07-26T03:57:45.578Z,10.40
2018-07-26T04:00:13.130Z,14.77
2018-07-26T04:02:40.688Z,13.10
2018-07-26T04:05:08.283Z,13.70
2018-07-26T04:07:35.855Z,19.30
2018-07-26T04:10:03.525Z,13.20
2018-07-26T04:12:31.082Z,15.37
2018-07-26T04:14:58.663Z,12.53
2018-07-26T04:17:26.227Z,11.90
2018-07-26T04:19:53.838Z,11.17
2018-07-26T04:22:21.404Z,11.87
2018-07-26T04:24:48.871Z,12.40
2018-07-26T04:27:16.430Z,13.97
2018-07-26T04:29:44.014Z,14.47
2018-07-26T04:32:11.652Z,13.73
2018-07-26T04:34:39.186Z,14.33
2018-07-26T04:37:06.949Z,14.00
2018-07-26T04:39:34.535Z,12.43
2018-07-26T04:42:02.119Z,10.33
2018-07-26T04:44:29.727Z,14.33
2018-07-26T04:46:57.220Z,13.30
2018-07-26T04:49:24.784Z,12.93
2018-07-26T04:51:52.332Z,11.67
2018-07-26T04:54:19.909Z,13.23
2018-07-26T04:56:47.445Z,13.23
2018-07-26T04:59:15.006Z,13.77
2018-07-26T05:01:42.568Z,12.97
2018-07-26T05:04:10.119Z,14.73
2018-07-26T05:06:37.683Z,14.13
2018-07-26T05:09:07.321Z,14.37
2018-07-26T05:11:34.884Z,13.03
2018-07-26T05:14:02.525Z,14.30
2018-07-26T05:16:30.139Z,14.87
2018-07-26T05:18:57.750Z,12.20
2018-07-26T05:21:25.304Z,14.10
2018-07-26T05:23:52.905Z,14.40
2018-07-26T05:26:20.480Z,11.23
2018-07-26T05:28:48.065Z,12.20
2018-07-26T05:31:15.685Z,16.20
2018-07-26T05:33:43.227Z,15.50
2018-07-26T05:36:10.843Z,13.60
2018-07-26T05:38:38.503Z,12.57
2018-07-26T05:41:06.061Z,11.63
2018-07-26T05:43:33.739Z,11.00
2018-07-26T05:46:01.351Z,14.77
2018-07-26T05:48:28.933Z,13.70
2018-07-26T05:50:56.558Z,12.03
2018-07-26T05:53:24.117Z,12.67
2018-07-26T05:55:51.676Z,16.50
2018-07-26T05:58:19.236Z,13.57
2018-07-26T06:00:46.839Z,11.70
2018-07-26T06:03:14.450Z,11.67
2018-07-26T06:05:42.098Z,12.07
2018-07-26T06:08:09.705Z,12.03
2018-07-26T06:10:37.295Z,16.87
2018-07-26T06:13:05.273Z,14.83
2018-07-26T06:15:33.007Z,14.47
2018-07-26T06:18:00.492Z,19.20
2018-07-26T06:20:28.048Z,14.70
2018-07-26T06:22:55.797Z,12.97
2018-07-26T06:25:23.418Z,13.37
2018-07-26T06:27:51.150Z,14.93
2018-07-26T06:30:18.743Z,14.27
2018-07-26T06:32:46.376Z,17.73
2018-07-26T06:35:14.084Z,17.63
2018-07-26T06:37:41.705Z,14.30
2018-07-26T06:40:09.377Z,12.90
2018-07-26T06:42:36.952Z,20.17
2018-07-26T06:45:06.335Z,12.93
2018-07-26T06:47:33.899Z,11.80
2018-07-26T06:50:01.509Z,12.23
2018-07-26T06:52:29.173Z,13.07
2018-07-26T06:54:56.751Z,14.47
2018-07-26T06:57:24.559Z,12.60
2018-07-26T06:59:52.191Z,15.10
2018-07-26T07:02:19.766Z,14.97
2018-07-26T07:04:47.339Z,14.20
2018-07-26T07:07:14.946Z,15.73
2018-07-26T07:09:42.491Z,12.43
2018-07-26T07:12:10.086Z,14.90
2018-07-26T07:14:37.679Z,14.87
2018-07-26T07:17:05.328Z,13.07
2018-07-26T07:19:32.930Z,17.77
2018-07-26T07:22:00.480Z,15.63
2018-07-26T07:24:28.020Z,15.40
2018-07-26T07:26:55.597Z,14.10
2018-07-26T07:29:23.161Z,16.27
2018-07-26T07:31:50.798Z,12.30
2018-07-26T07:34:18.358Z,12.87
2018-07-26T07:36:45.959Z,15.20
2018-07-26T07:39:14.038Z,12.37
2018-07-26T07:41:41.636Z,14.00
2018-07-26T07:44:09.516Z,12.70
2018-07-26T07:46:37.562Z,12.57
2018-07-26T07:49:05.127Z,13.27
2018-07-26T07:51:33.132Z,16.20
2018-07-26T07:54:00.693Z,11.37
2018-07-26T07:56:28.274Z,13.17
2018-07-26T07:58:55.828Z,15.00
2018-07-26T08:01:23.404Z,12.07
2018-07-26T08:03:50.988Z,15.63
2018-07-26T08:06:18.925Z,15.57
2018-07-26T08:08:46.509Z,13.60
2018-07-26T08:11:14.403Z,17.83
2018-07-26T08:13:41.992Z,13.80
2018-07-26T08:16:09.700Z,15.00
2018-07-26T08:18:37.254Z,14.83
2018-07-26T08:21:04.868Z,14.25
2018-07-26T08:23:32.555Z,15.13
2018-07-26T08:26:00.169Z,15.23
2018-07-26T08:28:27.745Z,15.85
2018-07-26T08:30:55.350Z,15.50
2018-07-26T08:33:22.938Z,21.23
2018-07-26T08:35:50.557Z,16.77
2018-07-26T08:38:18.163Z,17.15
2018-07-26T08:40:45.770Z,20.45
2018-07-26T08:43:13.345Z,15.58
2018-07-26T08:45:40.956Z,15.72
2018-07-26T08:48:08.534Z,18.07
2018-07-26T08:50:36.096Z,14.80
2018-07-26T08:53:03.692Z,14.80
2018-07-26T08:55:31.278Z,14.40
2018-07-26T08:57:58.896Z,13.88
2018-07-26T09:00:26.497Z,14.68
2018-07-26T09:02:54.072Z,14.58
2018-07-26T09:05:21.694Z,16.37
2018-07-26T09:07:49.304Z,16.40
2018-07-26T09:10:16.916Z,21.02
2018-07-26T09:12:44.540Z,20.05
2018-07-26T09:15:12.108Z,15.35
2018-07-26T09:17:39.756Z,14.38
2018-07-26T09:20:07.436Z,20.90
2018-07-26T09:22:35.032Z,25.97
2018-07-26T09:25:02.674Z,16.82
2018-07-26T09:27:30.278Z,16.20
2018-07-26T09:29:57.836Z,15.00
2018-07-26T09:32:25.440Z,12.80
2018-07-26T09:34:52.988Z,20.57
2018-07-26T09:37:20.643Z,17.12
2018-07-26T09:39:48.246Z,14.87
2018-07-26T09:42:15.842Z,16.10
2018-07-26T09:44:43.520Z,23.22
2018-07-26T09:47:11.124Z,15.25
2018-07-26T09:49:38.718Z,12.50
2018-07-26T09:52:06.334Z,16.57
2018-07-26T09:54:33.901Z,11.28
2018-07-26T09:57:01.553Z,15.55
2018-07-26T09:59:29.135Z,13.60
2018-07-26T10:01:56.692Z,14.95
2018-07-26T10:04:24.242Z,13.88
2018-07-26T10:06:51.901Z,10.10
2018-07-26T10:09:19.473Z,9.48
2018-07-26T10:11:47.094Z,16.97
2018-07-26T10:14:14.867Z,9.80
2018-07-26T10:16:42.425Z,7.87
2018-07-26T10:19:10.031Z,15.78
2018-07-26T10:21:37.647Z,9.18
2018-07-26T10:24:05.311Z,10.38
2018-07-26T10:26:32.893Z,10.13
2018-07-26T10:29:00.458Z,7.60
2018-07-26T10:31:28.001Z,9.00
2018-07-26T10:33:55.573Z,8.55
2018-07-26T10:36:23.232Z,16.07
2018-07-26T10:38:50.837Z,9.18
2018-07-26T10:41:18.547Z,8.73
2018-07-26T10:43:46.143Z,8.50
2018-07-26T10:46:13.637Z,7.30
2018-07-26T10:48:41.223Z,8.53
2018-07-26T10:51:08.814Z,7.53
2018-07-26T10:53:36.427Z,7.58
2018-07-26T10:56:04.538Z,8.55
2018-07-26T10:58:32.100Z,9.05
2018-07-26T11:00:59.765Z,7.80
2018-07-26T11:03:27.377Z,9.05
2018-07-26T11:05:54.940Z,8.55
2018-07-26T11:08:22.510Z,10.98
2018-07-26T11:10:50.111Z,12.68
2018-07-26T11:13:17.709Z,10.40
2018-07-26T11:15:45.312Z,10.20
2018-07-26T11:18:12.995Z,7.10
2018-07-26T11:20:40.631Z,10.68
2018-07-26T11:23:08.281Z,11.75
2018-07-26T11:25:35.896Z,7.50
2018-07-26T11:28:03.606Z,8.43
2018-07-26T11:30:31.243Z,7.83
2018-07-26T11:32:58.893Z,7.87
2018-07-26T11:35:26.505Z,7.42
2018-07-26T11:37:54.164Z,9.88
2018-07-26T11:40:21.811Z,11.33
2018-07-26T11:42:49.423Z,7.55
2018-07-26T11:45:17.048Z,6.25
2018-07-26T11:47:44.693Z,7.00
2018-07-26T11:50:12.729Z,7.37
2018-07-26T11:52:40.351Z,6.28
2018-07-26T11:55:08.036Z,7.28
2018-07-26T11:57:35.687Z,6.42
2018-07-26T12:00:04.188Z,9.58
2018-07-26T12:02:31.869Z,6.97
2018-07-26T12:04:59.499Z,11.78
2018-07-26T12:10:01.520Z,6.15
2018-07-26T12:12:29.193Z,6.95
2018-07-26T12:14:56.853Z,6.50
2018-07-26T12:17:24.487Z,7.10
2018-07-26T12:19:52.141Z,6.65
2018-07-26T12:22:19.771Z,7.25
2018-07-26T12:24:47.439Z,6.50
2018-07-26T12:27:15.050Z,8.35
2018-07-26T12:29:42.675Z,6.35
2018-07-26T12:32:10.315Z,7.00
2018-07-26T12:34:37.967Z,7.12
2018-07-26T12:37:05.651Z,5.55
2018-07-26T12:39:33.307Z,6.70
2018-07-26T12:42:00.933Z,5.55
2018-07-26T12:44:28.583Z,7.25
2018-07-26T12:46:56.316Z,6.22
2018-07-26T12:49:23.947Z,5.60
2018-07-26T12:51:51.599Z,5.87
2018-07-26T12:54:19.286Z,6.17
2018-07-26T12:56:46.923Z,6.55
2018-07-26T12:59:14.677Z,5.60
2018-07-26T13:01:42.329Z,8.00
2018-07-26T13:04:09.948Z,5.45
2018-07-26T13:06:37.582Z,5.58
2018-07-26T13:09:06.933Z,5.70
2018-07-26T13:11:34.539Z,6.35
2018-07-26T13:14:02.455Z,5.78
2018-07-26T13:16:30.090Z,6.40
2018-07-26T13:18:57.723Z,5.47
2018-07-26T13:21:25.379Z,7.40
2018-07-26T13:23:52.987Z,6.08
2018-07-26T13:26:20.621Z,5.90
2018-07-26T13:28:48.260Z,5.72
2018-07-26T13:31:15.907Z,5.53
2018-07-26T13:33:43.513Z,5.45
2018-07-26T13:36:11.115Z,5.25
2018-07-26T13:38:38.757Z,5.58
2018-07-26T13:41:06.376Z,5.72
2018-07-26T13:43:34.000Z,5.83
2018-07-26T13:46:01.640Z,5.83
2018-07-26T13:48:29.247Z,5.75
2018-07-26T13:50:57.031Z,7.20
2018-07-26T13:53:24.653Z,5.78
2018-07-26T13:55:52.283Z,5.58
2018-07-26T13:58:19.958Z,5.35
2018-07-26T14:00:47.628Z,5.55
2018-07-26T14:03:15.261Z,5.62
2018-07-26T14:05:42.984Z,5.20
2018-07-26T14:08:10.624Z,6.55
2018-07-26T14:10:38.268Z,5.70
2018-07-26T14:13:05.936Z,5.87
2018-07-26T14:15:33.766Z,5.65
2018-07-26T14:18:01.391Z,9.23
2018-07-26T14:20:29.050Z,6.30
2018-07-26T14:22:56.680Z,6.35
2018-07-26T14:25:24.306Z,5.95
2018-07-26T14:27:52.023Z,5.17
2018-07-26T14:30:19.614Z,5.33
2018-07-26T14:32:47.260Z,5.30
2018-07-26T14:35:14.927Z,7.37
2018-07-26T14:37:42.584Z,7.50
2018-07-26T14:40:10.246Z,5.97
2018-07-26T14:42:37.913Z,5.53
2018-07-26T14:45:05.880Z,6.22
2018-07-26T14:47:33.658Z,6.40
2018-07-26T14:50:01.301Z,5.53
2018-07-26T14:52:28.950Z,6.72
2018-07-26T14:54:56.587Z,6.95
2018-07-26T14:57:24.228Z,7.12
2018-07-26T14:59:51.905Z,6.20
2018-07-26T15:02:19.544Z,5.87
2018-07-26T15:04:47.172Z,7.15
2018-07-26T15:07:14.805Z,8.05
2018-07-26T15:09:42.541Z,6.47
2018-07-26T15:12:10.226Z,5.97
2018-07-26T15:14:37.910Z,6.25
2018-07-26T15:17:05.661Z,6.25
2018-07-26T15:19:33.386Z,6.03
2018-07-26T15:22:01.061Z,5.95
2018-07-26T15:24:30.355Z,6.03
2018-07-26T15:26:57.904Z,8.85
2018-07-26T15:29:25.468Z,8.55
2018-07-26T15:31:53.122Z,6.53
2018-07-26T15:34:20.754Z,6.22
2018-07-26T15:36:48.484Z,8.08
2018-07-26T15:39:16.132Z,5.33
2018-07-26T15:41:44.596Z,6.47
2018-07-26T15:44:13.630Z,5.28
2018-07-26T15:46:41.384Z,5.87
2018-07-26T15:49:09.338Z,5.53
2018-07-26T15:51:37.028Z,10.38
2018-07-26T15:54:04.712Z,5.65
2018-07-26T15:56:32.459Z,9.60
2018-07-26T15:59:00.141Z,7.62
2018-07-26T16:01:28.097Z,6.28
2018-07-26T16:03:55.837Z,5.83
2018-07-26T16:06:23.544Z,5.67
2018-07-26T16:08:51.185Z,6.08
2018-07-26T16:11:18.940Z,6.22
2018-07-26T16:13:46.649Z,7.12
2018-07-26T16:16:14.345Z,5.95
2018-07-26T16:18:41.987Z,8.15
2018-07-26T16:21:09.665Z,7.83
2018-07-26T16:23:37.316Z,6.40
2018-07-26T16:26:05.229Z,6.30
2018-07-26T16:28:32.916Z,6.33
2018-07-26T16:31:00.533Z,10.90
2018-07-26T16:33:28.193Z,5.97
2018-07-26T16:35:55.829Z,7.67
2018-07-26T16:38:23.509Z,7.75
2018-07-26T16:40:52.387Z,5.53
2018-07-26T16:43:20.104Z,5.60
2018-07-26T16:45:48.005Z,6.40
2018-07-26T16:48:15.733Z,9.93
2018-07-26T16:50:43.489Z,10.55
2018-07-26T16:53:11.203Z,5.47
2018-07-26T16:55:39.271Z,5.47
2018-07-26T16:58:06.966Z,9.73
2018-07-26T17:00:35.018Z,5.08
2018-07-26T17:03:02.713Z,4.87
2018-07-26T17:05:30.416Z,11.28
2018-07-26T17:07:58.115Z,4.58
2018-07-26T17:10:25.791Z,4.62
2018-07-26T17:12:53.474Z,4.75
2018-07-26T17:15:21.123Z,4.87
2018-07-26T17:17:48.789Z,4.65
2018-07-26T17:20:16.454Z,5.72
2018-07-26T17:22:44.193Z,5.55
2018-07-26T17:25:11.850Z,5.47
2018-07-26T17:27:39.543Z,5.30
2018-07-26T17:30:07.263Z,4.80
2018-07-26T17:32:34.978Z,4.83
2018-07-26T17:35:02.617Z,5.42
2018-07-26T17:37:30.284Z,10.53
2018-07-26T17:39:57.956Z,5.25
2018-07-26T17:42:25.583Z,6.53
2018-07-26T17:44:53.266Z,6.03
2018-07-26T17:47:20.892Z,5.65
2018-07-26T17:49:48.524Z,6.95
2018-07-26T17:52:16.219Z,5.45
2018-07-26T17:54:43.862Z,8.63
2018-07-26T17:57:11.457Z,6.17
2018-07-26T17:59:39.100Z,5.35
2018-07-26T18:02:06.743Z,4.72
2018-07-26T18:04:34.392Z,7.50
2018-07-26T18:07:01.935Z,6.08
2018-07-26T18:09:29.575Z,7.03
2018-07-26T18:11:57.246Z,6.15
2018-07-26T18:14:24.921Z,14.85
2018-07-26T18:16:52.533Z,6.47
2018-07-26T18:19:20.178Z,7.40
2018-07-26T18:21:47.845Z,10.30
2018-07-26T18:24:15.468Z,8.13
2018-07-26T18:26:43.096Z,22.13
2018-07-26T18:29:10.761Z,10.05
2018-07-26T18:31:38.497Z,12.00
2018-07-26T18:34:06.047Z,6.92
2018-07-26T18:36:33.925Z,7.62
2018-07-26T18:39:01.933Z,7.10
2018-07-26T18:41:29.597Z,8.33
2018-07-26T18:43:57.266Z,9.68
2018-07-26T18:46:24.885Z,9.90
2018-07-26T18:48:52.558Z,8.58
2018-07-26T18:51:20.231Z,8.83
2018-07-26T18:53:47.896Z,14.58
2018-07-26T18:56:15.632Z,10.70
2018-07-26T18:58:43.323Z,6.92
2018-07-26T19:01:10.994Z,6.85
2018-07-26T19:03:38.591Z,6.60
2018-07-26T19:06:06.347Z,12.78
2018-07-26T19:08:34.097Z,7.47
2018-07-26T19:11:01.751Z,8.58
2018-07-26T19:13:29.402Z,14.00
2018-07-26T19:15:57.031Z,8.13
2018-07-26T19:18:24.681Z,13.10
2018-07-26T19:20:52.326Z,7.50
2018-07-26T19:23:20.072Z,6.87
2018-07-26T19:25:47.696Z,7.95
2018-07-26T19:28:15.329Z,6.92
2018-07-26T19:30:42.961Z,6.83
2018-07-26T19:33:10.560Z,12.10
2018-07-26T19:35:38.210Z,7.12
2018-07-26T19:38:05.858Z,7.65
2018-07-26T19:40:33.494Z,7.28
2018-07-26T19:43:01.151Z,10.80
2018-07-26T19:45:28.759Z,5.65
2018-07-26T19:47:56.375Z,10.65
2018-07-26T19:50:24.043Z,7.75
2018-07-26T19:52:51.672Z,7.12
2018-07-26T19:55:19.286Z,7.47
2018-07-26T19:57:46.959Z,9.65
2018-07-26T20:00:14.622Z,8.78
2018-07-26T20:02:42.350Z,10.20
2018-07-26T20:05:10.049Z,8.40
2018-07-26T20:07:37.846Z,7.28
2018-07-26T20:10:07.848Z,6.60
2018-07-26T20:12:35.591Z,6.75
2018-07-26T20:15:03.950Z,9.95
2018-07-26T20:17:31.838Z,7.55
2018-07-26T20:19:59.597Z,7.05
2018-07-26T20:22:27.357Z,8.10
2018-07-26T20:24:55.169Z,7.60
2018-07-26T20:27:22.808Z,9.80
2018-07-26T20:29:50.505Z,7.17
2018-07-26T20:32:18.325Z,7.17
2018-07-26T20:34:46.090Z,12.30
2018-07-26T20:37:13.849Z,7.95
2018-07-26T20:39:41.588Z,10.20
2018-07-26T20:42:09.384Z,8.30
2018-07-26T20:44:37.009Z,10.90
2018-07-26T20:47:04.822Z,7.30
2018-07-26T20:49:32.468Z,9.60
2018-07-26T20:52:00.138Z,8.20
2018-07-26T20:54:27.849Z,9.38
2018-07-26T20:56:55.476Z,8.83
2018-07-26T20:59:23.191Z,13.58
2018-07-26T21:01:50.996Z,9.40
2018-07-26T21:04:18.695Z,9.85
2018-07-26T21:06:46.440Z,8.48
2018-07-26T21:09:14.257Z,7.97
2018-07-26T21:11:42.628Z,9.78
2018-07-26T21:14:10.288Z,6.35
2018-07-26T21:16:37.964Z,6.55
2018-07-26T21:19:05.716Z,9.40
2018-07-26T21:21:33.464Z,7.47
2018-07-26T21:24:01.118Z,8.93
2018-07-26T21:26:28.775Z,7.22
2018-07-26T21:28:56.570Z,6.65
2018-07-26T21:31:24.227Z,6.25
2018-07-26T21:33:51.868Z,7.90
2018-07-26T21:36:19.949Z,7.40
2018-07-26T21:38:47.619Z,10.78
2018-07-26T21:41:15.361Z,6.15
2018-07-26T21:43:43.005Z,8.05
2018-07-26T21:46:10.696Z,7.45
2018-07-26T21:48:38.397Z,6.83
2018-07-26T21:51:06.157Z,9.10
2018-07-26T21:53:33.765Z,17.77
2018-07-26T21:56:01.471Z,11.83
2018-07-26T21:58:29.082Z,8.55
2018-07-26T22:00:57.787Z,7.87
2018-07-26T22:03:26.883Z,8.80
2018-07-26T22:05:54.943Z,8.57
2018-07-26T22:08:22.596Z,6.53
2018-07-26T22:10:50.483Z,8.20
2018-07-26T22:13:18.641Z,9.35
2018-07-26T22:15:46.313Z,7.42
2018-07-26T22:18:13.976Z,9.48
2018-07-26T22:20:41.591Z,7.87
2018-07-26T22:23:09.272Z,7.75
2018-07-26T22:25:36.846Z,7.53
2018-07-26T22:28:04.739Z,9.20
2018-07-26T22:30:32.391Z,7.72
2018-07-26T22:33:00.064Z,6.97
2018-07-26T22:35:27.733Z,7.87
2018-07-26T22:37:55.361Z,7.33
2018-07-26T22:40:23.025Z,7.00
2018-07-26T22:42:50.650Z,7.13
2018-07-26T22:45:18.313Z,7.40
2018-07-26T22:47:45.917Z,8.33
2018-07-26T22:50:13.792Z,8.23
2018-07-26T22:52:41.441Z,7.33
2018-07-26T22:55:09.203Z,10.80
2018-07-26T22:57:36.883Z,5.87
2018-07-26T23:00:05.447Z,18.37
2018-07-26T23:02:33.640Z,13.27
2018-07-26T23:07:35.574Z,7.30
2018-07-26T23:10:03.547Z,6.73
2018-07-26T23:12:31.195Z,7.50
2018-07-26T23:14:58.822Z,6.87
2018-07-26T23:17:26.425Z,6.63
2018-07-26T23:19:53.955Z,6.90
2018-07-26T23:22:21.671Z,7.27
2018-07-26T23:24:55.871Z,8.80
2018-07-26T23:27:23.521Z,7.53
2018-07-26T23:29:51.114Z,9.80
2018-07-26T23:32:18.783Z,6.93
2018-07-26T23:34:46.409Z,9.20
2018-07-26T23:37:14.019Z,6.47
2018-07-26T23:39:41.644Z,7.60
2018-07-26T23:42:09.252Z,8.10
2018-07-26T23:44:36.916Z,7.87
2018-07-26T23:47:04.816Z,8.60
2018-07-26T23:49:32.455Z,10.23
2018-07-26T23:52:00.059Z,7.63
2018-07-26T23:54:27.677Z,8.20
2018-07-26T23:56:55.237Z,7.53
2018-07-26T23:59:22.849Z,11.27
